Time;durP1;ratioP1;P1;durP2;ratioP2;P2;SDS_P1;SDS_P2;PMS_P1;PMS_P2;Temp;Humidity;BMP_temperature;BMP_pressure;BME280_temperature;BME280_humidity;BME280_pressure;Samples;Min_cycle;Max_cycle;Signal;HPM_P1;HPM_P2
2022/04/03 00:00:25;;;;;;;24.02;3.75;;;;;;;19.44;59.41;99419.72;7307158;19;130422;-37
2022/04/03 00:02:51;;;;;;;31.77;4.45;;;;;;;19.44;59.38;99411.88;7306145;19;154688;-38
2022/04/03 00:05:16;;;;;;;32.30;5.00;;;;;;;19.43;59.12;99407.66;7304342;19;153998;-37
2022/04/03 00:07:41;;;;;;;60.47;7.23;;;;;;;19.32;59.27;99394.69;7303141;19;157134;-37
2022/04/03 00:10:07;;;;;;;40.67;5.27;;;;;;;19.43;59.16;99418.06;7306312;19;144527;-37
2022/04/03 00:12:33;;;;;;;31.15;4.15;;;;;;;19.42;58.31;99405.97;7305877;19;128962;-37
2022/04/03 00:14:58;;;;;;;32.45;4.35;;;;;;;19.44;58.61;99419.72;7306295;19;129090;-37
2022/04/03 00:17:23;;;;;;;11.23;2.55;;;;;;;19.42;59.64;99411.19;7306040;19;157562;-37
2022/04/03 00:19:48;;;;;;;37.87;5.27;;;;;;;19.48;58.69;99414.22;7307831;19;158675;-38
2022/04/03 00:22:14;;;;;;;17.83;2.83;;;;;;;19.33;58.99;99401.56;7308464;19;154916;-37
2022/04/03 00:24:39;;;;;;;28.98;4.20;;;;;;;19.44;59.21;99416.28;7302746;19;148095;-37
2022/04/03 00:27:05;;;;;;;25.27;3.75;;;;;;;19.41;58.35;99411.31;7308726;19;129666;-37
2022/04/03 00:29:30;;;;;;;43.45;5.85;;;;;;;19.39;59.30;99414.06;7306023;19;132396;-37
2022/04/03 00:31:56;;;;;;;26.63;4.22;;;;;;;19.38;59.34;99407.22;7308903;19;151922;-38
2022/04/03 00:34:22;;;;;;;11.63;2.80;;;;;;;19.40;59.62;99418.31;7310254;19;130087;-37
2022/04/03 00:36:47;;;;;;;11.75;2.30;;;;;;;19.40;59.30;99415.69;7310178;19;130067;-37
2022/04/03 00:39:13;;;;;;;36.67;5.00;;;;;;;19.39;58.97;99416.66;7304903;19;143099;-37
2022/04/03 00:41:39;;;;;;;14.15;2.80;;;;;;;19.38;59.15;99417.63;7309489;19;151571;-37
2022/04/03 00:44:05;;;;;;;33.92;4.90;;;;;;;19.40;58.56;99413.09;7308028;19;128888;-37
2022/04/03 00:46:33;;;;;;;20.60;3.38;;;;;;;19.39;59.56;99411.47;7309682;19;129165;-37
2022/04/03 00:48:59;;;;;;;23.55;3.60;;;;;;;19.40;58.84;99417.50;7306401;19;130519;-37
2022/04/03 00:51:25;;;;;;;7.53;2.00;;;;;;;19.38;59.29;99419.41;7311054;19;129642;-38
2022/04/03 00:53:50;;;;;;;18.55;3.30;;;;;;;19.38;58.75;99420.25;7309097;19;129943;-37
2022/04/03 00:56:15;;;;;;;17.35;3.03;;;;;;;19.38;58.99;99420.25;7304392;19;157866;-37
2022/04/03 00:58:41;;;;;;;20.35;3.13;;;;;;;19.38;58.91;99422.84;7305581;19;129472;-37
2022/04/03 01:01:06;;;;;;;20.35;3.33;;;;;;;19.36;59.67;99424.75;7307964;19;128882;-37
2022/04/03 01:03:31;;;;;;;27.10;4.28;;;;;;;19.37;59.22;99429.00;7308468;19;129834;-38
2022/04/03 01:05:57;;;;;;;21.33;3.05;;;;;;;19.28;58.67;99408.91;7309437;19;136720;-37
2022/04/03 01:08:25;;;;;;;17.35;2.63;;;;;;;19.36;59.80;99424.75;7306891;19;158274;-38
2022/04/03 01:10:51;;;;;;;20.95;3.33;;;;;;;19.37;58.89;99426.41;7310184;19;129493;-37
2022/04/03 01:13:16;;;;;;;16.77;2.97;;;;;;;19.37;59.15;99433.38;7316513;19;130014;-37
2022/04/03 01:15:42;;;;;;;17.90;2.72;;;;;;;19.39;58.36;99426.25;7314530;19;158538;-37
2022/04/03 01:18:08;;;;;;;22.92;3.97;;;;;;;19.35;59.48;99423.09;7314329;19;129153;-37
2022/04/03 01:20:35;;;;;;;22.67;3.30;;;;;;;19.36;58.11;99422.16;7317412;19;128840;-37
2022/04/03 01:23:00;;;;;;;37.97;5.35;;;;;;;19.27;58.42;99415.06;7315768;19;129894;-37
2022/04/03 01:25:25;;;;;;;28.35;4.40;;;;;;;19.38;58.27;99430.66;7314027;19;130122;-37
2022/04/03 01:27:51;;;;;;;27.00;3.85;;;;;;;19.26;59.43;99420.41;7315225;19;141756;-37
2022/04/03 01:30:16;;;;;;;26.73;3.50;;;;;;;19.35;59.19;99436.13;7306637;19;154450;-37
2022/04/03 01:32:41;;;;;;;21.40;3.30;;;;;;;19.34;58.33;99439.69;7314099;19;153968;-37
2022/04/03 01:35:07;;;;;;;25.42;3.90;;;;;;;19.36;58.28;99434.34;7313911;19;158515;-37
2022/04/03 01:37:32;;;;;;;16.30;2.42;;;;;;;19.23;59.63;99426.72;7314555;19;130789;-37
2022/04/03 01:39:58;;;;;;;24.42;3.60;;;;;;;19.34;59.34;99431.88;7314035;19;129082;-37
2022/04/03 01:42:23;;;;;;;22.42;3.33;;;;;;;19.36;58.19;99443.00;7315517;19;128835;-37
2022/04/03 01:44:48;;;;;;;37.17;5.20;;;;;;;19.37;58.69;99444.63;7314553;19;129156;-37
2022/04/03 01:47:14;;;;;;;19.83;2.90;;;;;;;19.33;59.13;99453.69;7315655;19;129387;-37
2022/04/03 01:49:39;;;;;;;28.70;4.05;;;;;;;19.33;58.74;99456.28;7314238;19;129104;-37
2022/04/03 01:52:05;;;;;;;23.65;3.15;;;;;;;19.34;58.31;99444.06;7317284;19;129199;-37
2022/04/03 01:54:30;;;;;;;36.83;5.13;;;;;;;19.33;58.87;99448.47;7314561;19;129961;-37
2022/04/03 01:56:55;;;;;;;22.90;3.08;;;;;;;19.24;58.66;99436.16;7312260;19;158619;-37
2022/04/03 01:59:21;;;;;;;19.90;2.83;;;;;;;19.31;59.61;99450.38;7311528;19;155067;-37
2022/04/03 02:01:46;;;;;;;19.17;2.85;;;;;;;19.26;58.12;99431.66;7316028;19;129104;-37
2022/04/03 02:04:12;;;;;;;25.33;3.67;;;;;;;19.35;58.04;99445.75;7313179;19;158272;-37
2022/04/03 02:06:37;;;;;;;14.82;2.65;;;;;;;19.25;58.42;99437.81;7313734;19;130367;-37
2022/04/03 02:09:04;;;;;;;22.65;3.40;;;;;;;19.32;59.28;99457.22;7313610;19;129061;-37
2022/04/03 02:11:29;;;;;;;21.60;3.35;;;;;;;19.32;58.84;99452.00;7314472;19;129127;-37
2022/04/03 02:13:54;;;;;;;23.30;3.40;;;;;;;19.27;58.70;99443.72;7313763;19;151777;-37
2022/04/03 02:16:20;;;;;;;14.90;2.33;;;;;;;19.31;58.90;99455.59;7312588;19;157405;-40
2022/04/03 02:18:45;;;;;;;19.40;2.90;;;;;;;19.33;58.25;99450.25;7310875;19;154438;-39
2022/04/03 02:21:11;;;;;;;12.57;1.90;;;;;;;19.32;59.19;99459.84;7314726;19;129587;-38
2022/04/03 02:23:36;;;;;;;26.02;3.38;;;;;;;19.23;58.27;99451.94;7312964;19;131232;-37
2022/04/03 02:26:02;;;;;;;26.55;3.70;;;;;;;19.31;58.62;99465.19;7313147;19;131162;-40
2022/04/03 02:28:27;;;;;;;26.58;4.05;;;;;;;19.24;59.15;99458.78;7311397;19;147515;-38
2022/04/03 02:30:52;;;;;;;17.80;2.50;;;;;;;19.30;58.80;99468.75;7314970;19;131467;-38
2022/04/03 02:33:18;;;;;;;16.77;2.70;;;;;;;19.30;58.79;99473.97;7314639;19;130188;-40
2022/04/03 02:35:43;;;;;;;30.05;3.50;;;;;;;19.31;58.15;99471.22;7312835;19;130423;-38
2022/04/03 02:38:09;;;;;;;23.13;3.28;;;;;;;19.28;58.88;99471.47;7312169;19;129493;-39
2022/04/03 02:40:34;;;;;;;9.60;2.03;;;;;;;19.28;58.84;99479.28;7313921;19;131311;-39
2022/04/03 02:42:59;;;;;;;19.58;2.83;;;;;;;19.27;58.39;99480.22;7312764;19;154954;-38
2022/04/03 02:45:25;;;;;;;30.73;3.77;;;;;;;19.32;58.21;99487.69;7311593;19;158559;-37
2022/04/03 02:47:55;;;;;;;23.08;3.45;;;;;;;19.24;57.89;99475.25;7310479;19;154452;-39
2022/04/03 02:50:22;;;;;;;14.25;2.22;;;;;;;19.31;58.08;99486.88;7313553;19;130038;-39
2022/04/03 02:52:52;;;;;;;15.85;2.13;;;;;;;19.30;58.91;99492.22;7314922;19;130080;-39
2022/04/03 02:55:21;;;;;;;21.30;2.80;;;;;;;19.26;58.75;99489.00;7311454;19;129878;-39
2022/04/03 02:57:46;;;;;;;16.00;2.55;;;;;;;19.29;58.59;99499.19;7311541;19;129281;-38
2022/04/03 03:00:15;;;;;;;18.83;2.90;;;;;;;19.27;58.28;99485.44;7313180;19;128881;-37
2022/04/03 03:02:44;;;;;;;14.63;2.53;;;;;;;19.15;59.32;99476.03;7312182;19;129397;-38
2022/04/03 03:05:10;;;;;;;22.60;2.95;;;;;;;19.28;59.64;99492.31;7313927;19;129237;-39
2022/04/03 03:07:39;;;;;;;11.55;1.95;;;;;;;19.30;60.08;99490.41;7311645;19;130380;-39
2022/04/03 03:10:06;;;;;;;21.83;2.83;;;;;;;19.18;61.18;99493.19;7314603;19;129105;-39
2022/04/03 03:12:31;;;;;;;10.68;1.85;;;;;;;18.97;60.72;99492.34;7311559;19;129189;-39
2022/04/03 03:14:57;;;;;;;25.42;3.53;;;;;;;18.96;59.65;99494.13;7312855;19;131503;-39
2022/04/03 03:17:22;;;;;;;17.95;2.30;;;;;;;19.04;59.39;99494.31;7312104;19;153747;-38
2022/04/03 03:19:48;;;;;;;14.73;2.28;;;;;;;19.13;58.96;99488.38;7313385;19;129504;-39
2022/04/03 03:22:13;;;;;;;16.02;2.20;;;;;;;19.29;58.78;99493.97;7314714;19;130194;-39
2022/04/03 03:24:38;;;;;;;38.53;5.30;;;;;;;19.42;58.13;99489.41;7309837;19;157384;-39
2022/04/03 03:27:04;;;;;;;20.83;2.87;;;;;;;19.48;57.58;99482.00;7311997;19;135481;-40
2022/04/03 03:29:30;;;;;;;45.55;6.20;;;;;;;19.65;57.06;99497.09;7304874;19;130746;-36
2022/04/03 03:31:55;;;;;;;25.88;3.45;;;;;;;19.78;56.69;99500.31;7299597;19;130595;-37
2022/04/03 03:34:20;;;;;;;17.52;2.45;;;;;;;19.87;56.96;99499.50;7310151;19;130438;-39
2022/04/03 03:36:45;;;;;;;12.03;1.67;;;;;;;19.99;56.50;99501.06;7311249;19;153934;-39
2022/04/03 03:39:12;;;;;;;18.73;2.80;;;;;;;20.07;55.51;99506.44;7308926;19;154659;-37
2022/04/03 03:41:37;;;;;;;17.77;2.40;;;;;;;20.16;55.50;99503.09;7312299;19;131170;-38
2022/04/03 03:44:09;;;;;;;32.83;3.83;;;;;;;20.24;55.69;99498.88;7310585;19;130324;-39
2022/04/03 03:46:35;;;;;;;19.52;2.38;;;;;;;20.35;55.54;99510.97;7311267;19;129267;-38
2022/04/03 03:49:00;;;;;;;17.00;2.50;;;;;;;20.42;55.08;99512.94;7308148;19;156326;-38
2022/04/03 03:51:25;;;;;;;17.60;2.23;;;;;;;20.49;54.11;99508.78;7311041;19;158894;-38
2022/04/03 03:53:51;;;;;;;21.60;3.27;;;;;;;20.53;54.37;99507.59;7309414;19;158407;-39
2022/04/03 03:56:16;;;;;;;16.25;2.08;;;;;;;20.46;55.20;99513.50;7309495;19;130121;-38
2022/04/03 03:58:42;;;;;;;26.30;3.65;;;;;;;20.43;55.07;99516.34;7309324;19;147104;-38
2022/04/03 04:01:07;;;;;;;24.33;3.13;;;;;;;20.45;54.91;99506.59;7312171;19;129554;-38
2022/04/03 04:03:32;;;;;;;18.20;2.60;;;;;;;20.44;55.00;99516.19;7311124;19;159729;-40
2022/04/03 04:05:58;;;;;;;15.57;2.65;;;;;;;20.41;55.14;99516.47;7310672;19;154394;-37
2022/04/03 04:08:23;;;;;;;20.50;2.75;;;;;;;20.32;54.81;99516.47;7309543;19;129014;-40
2022/04/03 04:10:48;;;;;;;20.63;2.67;;;;;;;20.22;55.53;99526.88;7307863;19;140156;-38
2022/04/03 04:13:13;;;;;;;20.07;2.77;;;;;;;20.11;55.98;99529.56;7305345;19;158257;-39
2022/04/03 04:15:39;;;;;;;11.93;1.93;;;;;;;20.04;56.53;99533.66;7311424;19;138612;-39
2022/04/03 04:18:04;;;;;;;20.07;2.83;;;;;;;20.08;56.22;99529.00;7309201;19;154233;-39
2022/04/03 04:20:29;;;;;;;15.85;2.13;;;;;;;20.08;55.76;99532.41;7310553;19;158392;-39
2022/04/03 04:22:54;;;;;;;16.77;2.15;;;;;;;20.18;56.08;99540.34;7310634;19;129585;-38
2022/04/03 04:25:20;;;;;;;29.38;3.67;;;;;;;20.24;55.69;99545.84;7310291;19;154874;-40
2022/04/03 04:27:46;;;;;;;23.52;3.08;;;;;;;20.31;55.59;99546.97;7308674;19;148437;-38
2022/04/03 04:30:14;;;;;;;28.03;3.60;;;;;;;20.41;55.57;99549.63;7306441;19;129224;-39
2022/04/03 04:32:39;;;;;;;21.50;2.92;;;;;;;20.49;54.89;99549.78;7312433;19;130810;-38
2022/04/03 04:35:05;;;;;;;46.53;5.95;;;;;;;20.46;54.71;99534.38;7308482;19;130330;-38
2022/04/03 04:37:31;;;;;;;16.17;2.10;;;;;;;20.62;54.38;99550.34;7311298;19;130087;-38
2022/04/03 04:39:56;;;;;;;18.55;2.67;;;;;;;20.74;53.95;99555.31;7310236;19;129510;-38
2022/04/03 04:42:22;;;;;;;15.90;2.30;;;;;;;20.79;54.09;99557.53;7308734;19;158586;-39
2022/04/03 04:44:47;;;;;;;11.98;1.58;;;;;;;20.83;54.18;99558.91;7311787;19;129786;-39
2022/04/03 04:47:13;;;;;;;18.20;2.33;;;;;;;20.92;53.73;99560.72;7313910;19;129406;-38
2022/04/03 04:49:38;;;;;;;16.35;2.47;;;;;;;21.02;53.58;99569.44;7316438;19;158135;-39
2022/04/03 04:52:04;;;;;;;19.02;2.47;;;;;;;21.07;53.08;99567.22;7317056;19;130232;-39
2022/04/03 04:54:30;;;;;;;23.05;3.13;;;;;;;21.02;53.31;99543.28;7314009;19;129277;-37
2022/04/03 04:56:56;;;;;;;19.25;2.42;;;;;;;21.14;53.03;99560.47;7315551;19;128999;-38
2022/04/03 04:59:21;;;;;;;14.20;1.95;;;;;;;21.19;52.68;99570.53;7314980;19;130998;-38
2022/04/03 05:01:46;;;;;;;29.17;3.25;;;;;;;21.13;53.39;99571.91;7313304;19;158482;-39
2022/04/03 05:04:12;;;;;;;13.35;1.77;;;;;;;21.05;52.92;99569.16;7314702;19;154499;-39
2022/04/03 05:06:38;;;;;;;18.17;2.40;;;;;;;20.92;53.97;99576.41;7315632;19;154313;-38
2022/04/03 05:09:04;;;;;;;21.80;2.73;;;;;;;20.79;53.67;99588.91;7313469;19;130103;-39
2022/04/03 05:11:29;;;;;;;17.50;2.33;;;;;;;20.67;54.20;99577.72;7313956;19;129308;-39
2022/04/03 05:13:54;;;;;;;22.52;2.88;;;;;;;20.52;54.69;99584.28;7316078;19;130645;-37
2022/04/03 05:16:20;;;;;;;19.88;2.50;;;;;;;20.42;54.80;99587.81;7311579;19;129561;-37
2022/04/03 05:18:46;;;;;;;17.70;2.40;;;;;;;20.31;55.46;99593.16;7312223;19;159210;-37
2022/04/03 05:21:12;;;;;;;19.15;2.45;;;;;;;20.23;55.93;99590.38;7314316;19;129316;-37
2022/04/03 05:23:39;;;;;;;23.08;3.10;;;;;;;20.26;56.06;99600.53;7315891;19;129754;-37
2022/04/03 05:26:04;;;;;;;;;;;;;;;20.19;55.73;99596.78;7311551;19;129142;-37
2022/04/03 05:28:29;;;;;;;20.92;2.55;;;;;;;20.35;55.66;99602.34;7313243;19;130136;-37
2022/04/03 05:30:55;;;;;;;52.10;6.68;;;;;;;20.35;55.45;99592.75;7303404;19;145763;-37
2022/04/03 05:33:20;;;;;;;20.00;2.65;;;;;;;20.53;54.88;99608.59;7307374;19;130152;-37
2022/04/03 05:35:46;;;;;;;20.90;2.33;;;;;;;20.63;54.88;99610.28;7315317;19;144726;-37
2022/04/03 05:38:11;;;;;;;43.55;5.03;;;;;;;20.72;54.33;99608.69;7310469;19;158772;-37
2022/04/03 05:40:36;;;;;;;19.02;2.55;;;;;;;20.80;54.56;99614.06;7312411;19;157556;-37
2022/04/03 05:43:01;;;;;;;18.92;2.60;;;;;;;20.83;54.00;99605.94;7314224;19;154718;-37
2022/04/03 05:45:27;;;;;;;31.73;4.35;;;;;;;20.95;54.02;99615.31;7313051;19;137900;-37
2022/04/03 05:47:53;;;;;;;29.48;3.25;;;;;;;21.02;53.74;99611.25;7314453;19;130127;-37
2022/04/03 05:50:19;;;;;;;27.33;3.45;;;;;;;21.11;53.15;99615.66;7312333;19;129439;-37
2022/04/03 05:52:49;;;;;;;28.88;3.53;;;;;;;21.08;53.27;99608.09;7311490;19;130214;-38
2022/04/03 05:55:19;;;;;;;25.98;3.03;;;;;;;21.29;52.64;99618.41;7311298;19;129595;-38
2022/04/03 05:57:49;;;;;;;20.77;2.47;;;;;;;21.34;52.63;99622.25;7312490;19;129934;-37
2022/04/03 06:00:17;;;;;;;16.25;1.92;;;;;;;21.37;52.66;99622.00;7314805;19;132173;-38
2022/04/03 06:02:56;;;;;;;27.75;3.65;;;;;;;21.28;52.28;99611.53;7313399;19;130312;-37
2022/04/03 06:05:27;;;;;;;37.38;4.00;;;;;;;21.32;52.88;99626.81;7311417;19;130700;-38
2022/04/03 06:07:52;;;;;;;13.35;2.03;;;;;;;21.22;53.03;99627.78;7311588;19;132865;-38
2022/04/03 06:10:19;;;;;;;20.33;2.78;;;;;;;21.13;52.90;99629.41;7312147;19;130200;-38
2022/04/03 06:12:59;;;;;;;29.60;3.63;;;;;;;20.99;53.20;99636.81;7310280;19;130209;-38
2022/04/03 06:15:27;;;;;;;30.42;3.95;;;;;;;20.83;53.90;99626.84;7312284;19;129531;-37
2022/04/03 06:17:53;;;;;;;34.30;4.00;;;;;;;20.68;54.19;99625.56;7310434;19;130141;-37
2022/04/03 06:20:20;;;;;;;20.03;2.73;;;;;;;20.58;54.48;99629.94;7313837;19;129936;-37
2022/04/03 06:22:46;;;;;;;30.83;3.67;;;;;;;20.36;55.13;99617.06;7313526;19;130405;-37
2022/04/03 06:25:12;;;;;;;44.38;5.40;;;;;;;20.35;55.31;99638.91;7309762;19;148391;-38
2022/04/03 06:27:37;;;;;;;19.05;2.30;;;;;;;20.34;55.32;99640.72;7312287;19;130331;-37
2022/04/03 06:30:03;;;;;;;21.33;2.67;;;;;;;20.34;55.88;99650.31;7311070;19;144271;-38
2022/04/03 06:32:29;;;;;;;14.20;1.85;;;;;;;20.37;55.22;99650.03;7310840;19;128872;-38
2022/04/03 06:34:54;;;;;;;27.13;3.63;;;;;;;20.31;56.06;99659.22;7306338;19;130398;-38
2022/04/03 06:37:19;;;;;;;25.83;3.03;;;;;;;20.28;56.27;99653.47;7312436;19;129467;-38
2022/04/03 06:39:45;;;;;;;31.17;3.33;;;;;;;20.24;56.47;99659.88;7310187;19;158748;-38
2022/04/03 06:42:10;;;;;;;23.40;3.00;;;;;;;20.17;56.02;99656.97;7313613;19;154568;-37
2022/04/03 06:44:35;;;;;;;30.70;3.67;;;;;;;20.08;56.79;99654.28;7312867;19;129799;-38
2022/04/03 06:47:01;;;;;;;22.48;3.05;;;;;;;20.02;56.54;99650.38;7311253;19;157761;-37
2022/04/03 06:49:29;;;;;;;20.27;2.47;;;;;;;19.95;56.68;99648.41;7310522;19;129172;-39
2022/04/03 06:51:54;;;;;;;16.20;2.13;;;;;;;19.91;57.15;99662.66;7313745;19;128855;-40
2022/04/03 06:54:19;;;;;;;14.18;1.80;;;;;;;19.83;57.58;99658.09;7312355;19;149704;-40
2022/04/03 06:56:45;;;;;;;18.52;2.50;;;;;;;19.79;57.79;99666.28;7312837;19;129447;-40
2022/04/03 06:59:10;;;;;;;9.05;1.55;;;;;;;19.76;57.72;99663.94;7311548;19;129807;-41
2022/04/03 07:01:35;;;;;;;55.20;6.30;;;;;;;19.72;58.00;99667.75;7284669;19;154444;-38
2022/04/03 07:04:00;;;;;;;22.47;2.90;;;;;;;19.68;58.78;99663.72;7301524;19;153817;-39
2022/04/03 07:06:26;;;;;;;16.42;1.83;;;;;;;19.68;58.77;99672.41;7310636;19;158233;-38
2022/04/03 07:08:51;;;;;;;18.52;2.08;;;;;;;19.66;58.96;99673.47;7311176;19;129104;-39
2022/04/03 07:11:16;;;;;;;19.07;2.37;;;;;;;19.64;58.98;99670.13;7310896;19;154002;-38
2022/04/03 07:13:42;;;;;;;34.03;4.28;;;;;;;19.63;59.46;99668.50;7312880;19;129177;-37
2022/04/03 07:16:07;;;;;;;29.80;3.40;;;;;;;19.64;59.80;99676.19;7310923;19;157227;-39
2022/04/03 07:18:35;;;;;;;26.13;3.23;;;;;;;19.67;60.22;99675.13;7310274;19;158621;-38
2022/04/03 07:21:00;;;;;;;22.55;2.78;;;;;;;19.69;59.79;99668.81;7312574;19;129177;-38
2022/04/03 07:23:26;;;;;;;26.13;3.33;;;;;;;19.73;59.62;99666.78;7311425;19;154130;-37
2022/04/03 07:25:51;;;;;;;20.23;2.45;;;;;;;19.76;59.81;99676.97;7311256;19;145150;-37
2022/04/03 07:28:16;;;;;;;18.15;2.17;;;;;;;19.79;59.43;99674.09;7310270;19;158486;-40
2022/04/03 07:30:42;;;;;;;31.23;3.42;;;;;;;19.80;59.14;99681.00;7311857;19;154697;-41
2022/04/03 07:33:07;;;;;;;17.75;2.67;;;;;;;19.85;58.74;99684.06;7310206;19;129214;-40
2022/04/03 07:35:33;;;;;;;37.37;4.10;;;;;;;19.86;58.55;99680.47;7308171;19;159606;-37
2022/04/03 07:37:58;;;;;;;25.55;3.17;;;;;;;19.86;59.05;99685.69;7311172;19;130325;-39
2022/04/03 07:40:23;;;;;;;4.88;0.95;;;;;;;19.91;58.14;99681.75;7312355;19;135913;-40
2022/04/03 07:42:50;;;;;;;24.55;2.50;;;;;;;19.79;58.14;99672.34;7312279;19;128704;-39
2022/04/03 07:45:15;;;;;;;21.17;2.55;;;;;;;19.84;57.61;99687.59;7310333;19;130067;-39
2022/04/03 07:47:49;;;;;;;26.95;3.13;;;;;;;20.33;55.49;99687.81;7304494;19;130168;-39
2022/04/03 07:50:16;;;;;;;15.60;2.22;;;;;;;20.96;53.81;99678.88;7310534;19;129251;-40
2022/04/03 07:52:41;;;;;;;23.45;2.67;;;;;;;21.38;52.76;99686.44;7311087;19;129954;-41
2022/04/03 07:55:10;;;;;;;15.20;1.60;;;;;;;21.63;51.80;99679.81;7308836;19;158096;-38
2022/04/03 07:57:37;;;;;;;20.42;2.42;;;;;;;21.94;51.10;99684.81;7311348;19;131468;-40
2022/04/03 08:00:07;;;;;;;19.75;2.28;;;;;;;21.73;52.36;99675.41;7308929;19;129795;-42
2022/04/03 08:02:34;;;;;;;27.85;3.35;;;;;;;21.46;52.90;99689.19;7311957;19;129335;-41
2022/04/03 08:04:59;;;;;;;13.60;1.85;;;;;;;21.28;53.24;99685.59;7311337;19;130757;-40
2022/04/03 08:07:58;;;;;;;15.35;1.67;;;;;;;21.15;54.56;99686.78;7311349;19;157797;-39
2022/04/03 08:10:23;;;;;;;14.63;1.83;;;;;;;21.04;53.50;99686.91;7311214;19;129438;-40
2022/04/03 08:12:50;;;;;;;20.25;2.53;;;;;;;20.86;53.68;99668.38;7311629;19;129146;-41
2022/04/03 08:15:17;;;;;;;28.67;3.50;;;;;;;20.84;54.38;99691.19;7309548;19;129560;-39
2022/04/03 08:17:43;;;;;;;23.55;2.65;;;;;;;20.79;54.69;99689.97;7310979;19;132234;-41
2022/04/03 08:20:10;;;;;;;22.17;2.92;;;;;;;20.74;54.75;99682.53;7305395;19;130494;-40
2022/04/03 08:22:37;;;;;;;34.00;4.03;;;;;;;20.69;54.58;99695.97;7311555;19;129244;-39
2022/04/03 08:25:03;;;;;;;25.58;2.85;;;;;;;20.62;54.84;99697.47;7311062;19;129943;-40
2022/04/03 08:27:45;;;;;;;23.45;2.97;;;;;;;20.56;55.54;99697.16;7309137;19;130807;-41
2022/04/03 08:30:13;;;;;;;17.88;2.08;;;;;;;20.54;54.79;99699.88;7310818;19;142957;-38
2022/04/03 08:32:39;;;;;;;18.73;2.17;;;;;;;20.47;55.46;99697.94;7310838;19;128926;-38
2022/04/03 08:35:04;;;;;;;19.88;2.35;;;;;;;20.50;55.19;99702.88;7310923;19;129541;-38
2022/04/03 08:37:30;;;;;;;18.58;2.33;;;;;;;20.47;55.55;99700.53;7310738;19;130414;-38
2022/04/03 08:39:55;;;;;;;14.10;1.90;;;;;;;20.46;55.11;99706.72;7306130;19;154373;-38
2022/04/03 08:42:20;;;;;;;24.83;2.70;;;;;;;20.43;55.72;99706.97;7309230;19;153962;-38
2022/04/03 08:44:46;;;;;;;35.70;3.92;;;;;;;20.40;55.31;99702.84;7308836;19;130872;-38
2022/04/03 08:47:15;;;;;;;18.90;2.22;;;;;;;20.39;56.00;99702.97;7309121;19;159292;-38
2022/04/03 08:49:41;;;;;;;22.50;2.83;;;;;;;20.36;55.31;99703.25;7311177;19;129223;-38
2022/04/03 08:52:09;;;;;;;19.35;2.40;;;;;;;20.36;55.95;99711.06;7309222;19;154276;-38
2022/04/03 08:54:36;;;;;;;24.80;3.15;;;;;;;20.35;55.64;99701.56;7307904;19;130159;-38
2022/04/03 08:57:01;;;;;;;20.38;2.42;;;;;;;20.33;55.82;99706.09;7311131;19;129735;-38
2022/04/03 08:59:27;;;;;;;14.75;1.95;;;;;;;20.29;55.93;99709.94;7307867;19;129261;-38
2022/04/03 09:01:52;;;;;;;16.58;2.10;;;;;;;20.32;55.07;99704.44;7311161;19;128819;-38
2022/04/03 09:04:20;;;;;;;12.40;1.52;;;;;;;20.29;55.52;99705.53;7308499;19;158387;-38
2022/04/03 09:06:59;;;;;;;20.73;2.60;;;;;;;20.26;56.58;99699.75;7308948;19;129742;-38
2022/04/03 09:09:27;;;;;;;15.80;2.15;;;;;;;20.25;56.04;99703.28;7308882;19;129194;-38
2022/04/03 09:12:13;;;;;;;20.40;2.13;;;;;;;20.22;56.56;99698.34;7309945;19;129086;-38
2022/04/03 09:14:47;;;;;;;19.92;2.58;;;;;;;20.22;56.17;99708.78;7308526;19;129118;-38
2022/04/03 09:17:29;;;;;;;23.02;2.67;;;;;;;20.14;56.69;99696.34;7307204;19;130269;-38
2022/04/03 09:19:55;;;;;;;13.98;1.60;;;;;;;20.07;55.81;99684.75;7307205;19;129545;-38
2022/04/03 09:22:27;;;;;;;16.58;2.17;;;;;;;20.14;56.46;99692.91;7309405;19;130131;-38
2022/04/03 09:24:53;;;;;;;14.32;1.70;;;;;;;20.09;56.25;99703.72;7309125;19;129965;-38
2022/04/03 09:27:18;;;;;;;18.95;2.40;;;;;;;19.97;56.08;99691.69;7309244;19;129795;-38
2022/04/03 09:29:44;;;;;;;25.27;2.95;;;;;;;20.14;55.71;99703.34;7307422;19;154754;-38
2022/04/03 09:32:11;;;;;;;14.70;2.10;;;;;;;20.05;56.72;99704.09;7311878;19;129127;-38
2022/04/03 09:34:36;;;;;;;;;;;;;;;20.11;57.56;99698.38;7314096;19;130263;-38
2022/04/03 09:37:05;;;;;;;20.00;2.37;;;;;;;20.07;56.10;99700.41;7315993;19;132629;-38
2022/04/03 09:39:31;;;;;;;23.15;2.60;;;;;;;20.05;56.35;99691.03;7314091;19;129338;-38
2022/04/03 09:42:02;;;;;;;18.05;2.17;;;;;;;20.07;56.23;99702.19;7317164;19;128913;-38
2022/04/03 09:44:33;;;;;;;26.48;3.30;;;;;;;19.92;58.25;99685.19;7314285;19;129594;-38
2022/04/03 09:47:21;;;;;;;23.05;2.67;;;;;;;19.85;57.24;99684.06;7315774;19;130370;-38
2022/04/03 09:49:51;;;;;;;23.52;2.47;;;;;;;20.04;56.06;99695.44;7315845;19;129880;-38
2022/04/03 09:52:36;;;;;;;8.95;1.13;;;;;;;19.99;55.97;99702.00;7316367;19;129057;-38
2022/04/03 09:55:06;;;;;;;53.25;6.00;;;;;;;19.97;56.85;99709.94;7312906;19;129658;-38
2022/04/03 09:57:32;;;;;;;21.70;2.33;;;;;;;19.96;56.23;99707.47;7313509;19;129666;-38
2022/04/03 09:59:58;;;;;;;22.25;2.83;;;;;;;19.87;56.12;99705.59;7313820;19;129088;-38
2022/04/03 10:02:24;;;;;;;12.45;1.73;;;;;;;19.97;56.77;99714.34;7315158;19;129623;-38
2022/04/03 10:04:51;;;;;;;22.60;2.78;;;;;;;19.94;56.22;99711.97;7313200;19;129855;-38
2022/04/03 10:07:17;;;;;;;14.18;1.73;;;;;;;19.95;56.79;99714.47;7313661;19;130178;-38
2022/04/03 10:09:51;;;;;;;30.15;3.67;;;;;;;19.94;58.55;99715.44;7313124;19;131173;-38
2022/04/03 10:12:18;;;;;;;13.27;1.80;;;;;;;19.97;55.73;99706.50;7314670;19;129559;-38
2022/04/03 10:14:50;;;;;;;16.98;2.33;;;;;;;19.93;57.90;99702.50;7313915;19;130503;-38
2022/04/03 10:17:18;;;;;;;21.20;2.28;;;;;;;19.97;56.70;99694.28;7314542;19;130316;-38
2022/04/03 10:19:43;;;;;;;28.15;3.58;;;;;;;19.97;55.87;99703.91;7313166;19;130988;-38
2022/04/03 10:22:16;;;;;;;20.45;2.70;;;;;;;19.86;56.82;99686.53;7315170;19;129780;-38
2022/04/03 10:24:44;;;;;;;28.02;3.50;;;;;;;19.94;56.51;99693.72;7312959;19;129937;-38
2022/04/03 10:27:17;;;;;;;28.80;3.45;;;;;;;19.94;57.26;99688.50;7312669;19;129892;-38
2022/04/03 10:29:43;;;;;;;31.10;3.78;;;;;;;19.83;56.71;99680.75;7314073;19;129489;-38
2022/04/03 10:32:21;;;;;;;52.67;5.72;;;;;;;19.92;58.32;99691.22;7313234;19;129991;-38
2022/04/03 10:34:50;;;;;;;29.65;3.47;;;;;;;19.81;56.98;99680.88;7313242;19;129688;-38
2022/04/03 10:37:26;;;;;;;30.33;3.45;;;;;;;19.82;57.22;99668.63;7313466;19;129361;-38
2022/04/03 10:39:54;;;;;;;25.13;2.63;;;;;;;19.89;55.26;99690.66;7312418;19;128874;-38
2022/04/03 10:42:26;;;;;;;14.52;2.13;;;;;;;19.86;55.91;99690.91;7314688;19;128978;-37
2022/04/03 10:45:10;;;;;;;29.85;3.47;;;;;;;19.87;56.98;99698.63;7313701;19;130272;-38
2022/04/03 10:47:35;;;;;;;24.23;3.05;;;;;;;19.85;55.69;99689.28;7312349;19;129790;-38
2022/04/03 10:50:04;;;;;;;29.88;2.70;;;;;;;19.86;56.58;99691.75;7312971;19;155315;-38
2022/04/03 10:52:38;;;;;;;18.45;2.25;;;;;;;19.85;57.33;99684.84;7313914;19;130178;-38
2022/04/03 10:55:18;;;;;;;26.95;3.05;;;;;;;19.85;57.18;99684.06;7313276;19;129220;-38
2022/04/03 10:57:51;;;;;;;46.72;5.45;;;;;;;19.84;56.30;99687.59;7311673;19;130752;-38
2022/04/03 11:00:16;;;;;;;31.92;3.70;;;;;;;19.90;53.94;99684.50;7309326;19;129241;-37
2022/04/03 11:02:51;;;;;;;29.77;3.42;;;;;;;20.07;54.12;99673.47;7312808;19;129220;-40
2022/04/03 11:05:22;;;;;;;20.63;2.78;;;;;;;19.84;53.81;99661.50;7308043;19;129745;-40
2022/04/03 11:07:51;;;;;;;22.35;2.70;;;;;;;19.82;56.06;99673.84;7313404;19;130991;-40
2022/04/03 11:10:52;;;;;;;17.88;1.88;;;;;;;19.85;55.47;99686.66;7316069;19;129164;-40
2022/04/03 11:13:29;;;;;;;12.30;1.77;;;;;;;19.83;55.62;99676.34;7311095;19;131721;-39
2022/04/03 11:15:54;;;;;;;24.67;3.03;;;;;;;19.84;55.09;99678.00;7313334;19;158999;-40